sensor_id;sensor_type;location;lat;lon;timestamp;P1;durP1;ratioP1;P2;durP2;ratioP2
39094;SDS011;24840;47.508;19.376;2022-10-31T00:02:28;76.50;;;48.08;;
39094;SDS011;24840;47.508;19.376;2022-10-31T00:04:57;77.88;;;48.95;;
39094;SDS011;24840;47.508;19.376;2022-10-31T00:07:28;75.50;;;48.63;;
39094;SDS011;24840;47.508;19.376;2022-10-31T00:10:03;83.93;;;50.60;;
39094;SDS011;24840;47.508;19.376;2022-10-31T00:12:29;85.78;;;50.80;;
39094;SDS011;24840;47.508;19.376;2022-10-31T00:14:55;87.50;;;52.85;;
39094;SDS011;24840;47.508;19.376;2022-10-31T00:17:21;88.65;;;51.35;;
39094;SDS011;24840;47.508;19.376;2022-10-31T00:23:11;89.65;;;52.60;;
39094;SDS011;24840;47.508;19.376;2022-10-31T00:25:41;82.97;;;51.40;;
39094;SDS011;24840;47.508;19.376;2022-10-31T00:31:20;77.13;;;46.95;;
39094;SDS011;24840;47.508;19.376;2022-10-31T00:33:53;77.65;;;47.10;;
39094;SDS011;24840;47.508;19.376;2022-10-31T00:36:23;83.55;;;51.28;;
39094;SDS011;24840;47.508;19.376;2022-10-31T00:38:53;86.43;;;53.17;;
39094;SDS011;24840;47.508;19.376;2022-10-31T00:41:29;83.80;;;49.80;;
39094;SDS011;24840;47.508;19.376;2022-10-31T00:43:59;84.57;;;51.47;;
39094;SDS011;24840;47.508;19.376;2022-10-31T00:46:28;88.68;;;49.47;;
39094;SDS011;24840;47.508;19.376;2022-10-31T00:49:07;87.88;;;51.97;;
39094;SDS011;24840;47.508;19.376;2022-10-31T00:51:33;83.45;;;48.92;;
39094;SDS011;24840;47.508;19.376;2022-10-31T00:54:00;80.30;;;49.10;;
39094;SDS011;24840;47.508;19.376;2022-10-31T00:56:33;67.50;;;42.85;;
39094;SDS011;24840;47.508;19.376;2022-10-31T00:59:07;71.38;;;43.45;;
39094;SDS011;24840;47.508;19.376;2022-10-31T01:01:36;66.95;;;44.15;;
39094;SDS011;24840;47.508;19.376;2022-10-31T01:04:04;69.30;;;44.83;;
39094;SDS011;24840;47.508;19.376;2022-10-31T01:06:30;78.22;;;45.83;;
39094;SDS011;24840;47.508;19.376;2022-10-31T01:09:01;83.35;;;46.38;;
39094;SDS011;24840;47.508;19.376;2022-10-31T01:11:27;79.45;;;47.38;;
39094;SDS011;24840;47.508;19.376;2022-10-31T01:13:53;71.50;;;43.70;;
39094;SDS011;24840;47.508;19.376;2022-10-31T01:16:21;70.35;;;44.42;;
39094;SDS011;24840;47.508;19.376;2022-10-31T01:21:19;77.80;;;47.60;;
39094;SDS011;24840;47.508;19.376;2022-10-31T01:23:47;71.90;;;44.97;;
39094;SDS011;24840;47.508;19.376;2022-10-31T01:26:14;79.57;;;48.72;;
39094;SDS011;24840;47.508;19.376;2022-10-31T01:31:27;81.85;;;48.97;;
39094;SDS011;24840;47.508;19.376;2022-10-31T01:33:55;89.55;;;49.10;;
39094;SDS011;24840;47.508;19.376;2022-10-31T01:38:51;92.15;;;48.58;;
39094;SDS011;24840;47.508;19.376;2022-10-31T01:41:20;97.80;;;49.35;;
39094;SDS011;24840;47.508;19.376;2022-10-31T01:43:50;79.55;;;48.08;;
39094;SDS011;24840;47.508;19.376;2022-10-31T01:46:24;83.75;;;47.42;;
39094;SDS011;24840;47.508;19.376;2022-10-31T01:52:23;75.55;;;46.80;;
39094;SDS011;24840;47.508;19.376;2022-10-31T01:57:27;84.32;;;47.97;;
39094;SDS011;24840;47.508;19.376;2022-10-31T01:59:57;81.05;;;46.38;;
39094;SDS011;24840;47.508;19.376;2022-10-31T02:02:26;76.45;;;46.38;;
39094;SDS011;24840;47.508;19.376;2022-10-31T02:04:55;80.78;;;45.42;;
39094;SDS011;24840;47.508;19.376;2022-10-31T02:07:27;71.15;;;44.75;;
39094;SDS011;24840;47.508;19.376;2022-10-31T02:09:59;77.10;;;44.75;;
39094;SDS011;24840;47.508;19.376;2022-10-31T02:12:27;81.88;;;45.78;;
39094;SDS011;24840;47.508;19.376;2022-10-31T02:14:55;80.30;;;47.10;;
39094;SDS011;24840;47.508;19.376;2022-10-31T02:17:21;77.75;;;44.55;;
39094;SDS011;24840;47.508;19.376;2022-10-31T02:31:32;73.47;;;39.38;;
39094;SDS011;24840;47.508;19.376;2022-10-31T02:34:33;67.25;;;38.42;;
39094;SDS011;24840;47.508;19.376;2022-10-31T02:37:25;69.45;;;40.00;;
39094;SDS011;24840;47.508;19.376;2022-10-31T02:40:14;72.60;;;40.97;;
39094;SDS011;24840;47.508;19.376;2022-10-31T02:42:51;57.65;;;34.78;;
39094;SDS011;24840;47.508;19.376;2022-10-31T02:45:47;65.35;;;37.42;;
39094;SDS011;24840;47.508;19.376;2022-10-31T02:48:23;62.25;;;38.30;;
39094;SDS011;24840;47.508;19.376;2022-10-31T02:50:55;63.90;;;38.58;;
39094;SDS011;24840;47.508;19.376;2022-10-31T02:53:24;64.35;;;39.53;;
39094;SDS011;24840;47.508;19.376;2022-10-31T02:56:01;65.10;;;36.58;;
39094;SDS011;24840;47.508;19.376;2022-10-31T02:58:34;69.13;;;36.83;;
39094;SDS011;24840;47.508;19.376;2022-10-31T03:01:45;65.10;;;36.60;;
39094;SDS011;24840;47.508;19.376;2022-10-31T03:04:42;57.97;;;35.22;;
39094;SDS011;24840;47.508;19.376;2022-10-31T03:12:37;61.22;;;35.50;;
39094;SDS011;24840;47.508;19.376;2022-10-31T03:15:34;58.72;;;34.35;;
39094;SDS011;24840;47.508;19.376;2022-10-31T03:23:29;49.63;;;34.23;;
39094;SDS011;24840;47.508;19.376;2022-10-31T03:25:57;51.40;;;33.60;;
39094;SDS011;24840;47.508;19.376;2022-10-31T03:31:08;58.08;;;34.47;;
39094;SDS011;24840;47.508;19.376;2022-10-31T03:33:37;53.35;;;32.95;;
39094;SDS011;24840;47.508;19.376;2022-10-31T03:36:07;53.03;;;34.03;;
39094;SDS011;24840;47.508;19.376;2022-10-31T03:45:06;49.78;;;29.52;;
39094;SDS011;24840;47.508;19.376;2022-10-31T03:47:38;47.63;;;31.05;;
39094;SDS011;24840;47.508;19.376;2022-10-31T03:50:06;46.95;;;28.83;;
39094;SDS011;24840;47.508;19.376;2022-10-31T03:52:40;48.63;;;29.05;;
39094;SDS011;24840;47.508;19.376;2022-10-31T03:55:10;45.92;;;30.27;;
39094;SDS011;24840;47.508;19.376;2022-10-31T04:00:42;40.40;;;28.23;;
39094;SDS011;24840;47.508;19.376;2022-10-31T04:03:18;41.78;;;26.23;;
39094;SDS011;24840;47.508;19.376;2022-10-31T04:05:58;40.17;;;27.65;;
39094;SDS011;24840;47.508;19.376;2022-10-31T04:11:27;36.88;;;24.65;;
39094;SDS011;24840;47.508;19.376;2022-10-31T04:13:56;34.42;;;23.90;;
39094;SDS011;24840;47.508;19.376;2022-10-31T04:16:25;36.75;;;24.17;;
39094;SDS011;24840;47.508;19.376;2022-10-31T04:19:01;37.67;;;25.55;;
39094;SDS011;24840;47.508;19.376;2022-10-31T04:21:27;35.63;;;23.67;;
39094;SDS011;24840;47.508;19.376;2022-10-31T04:23:54;36.65;;;24.70;;
39094;SDS011;24840;47.508;19.376;2022-10-31T04:26:21;36.65;;;23.50;;
39094;SDS011;24840;47.508;19.376;2022-10-31T04:31:17;39.47;;;25.05;;
39094;SDS011;24840;47.508;19.376;2022-10-31T04:33:43;39.53;;;26.40;;
39094;SDS011;24840;47.508;19.376;2022-10-31T04:36:09;36.72;;;25.00;;
39094;SDS011;24840;47.508;19.376;2022-10-31T04:38:45;42.28;;;25.38;;
39094;SDS011;24840;47.508;19.376;2022-10-31T04:41:11;42.58;;;24.95;;
39094;SDS011;24840;47.508;19.376;2022-10-31T04:43:37;41.60;;;25.10;;
39094;SDS011;24840;47.508;19.376;2022-10-31T04:46:03;38.33;;;23.67;;
39094;SDS011;24840;47.508;19.376;2022-10-31T04:48:29;33.40;;;22.95;;
39094;SDS011;24840;47.508;19.376;2022-10-31T04:51:01;33.67;;;23.42;;
39094;SDS011;24840;47.508;19.376;2022-10-31T04:53:28;30.90;;;20.98;;
39094;SDS011;24840;47.508;19.376;2022-10-31T04:55:54;31.05;;;20.90;;
39094;SDS011;24840;47.508;19.376;2022-10-31T04:58:22;30.85;;;20.30;;
39094;SDS011;24840;47.508;19.376;2022-10-31T05:00:51;29.15;;;21.55;;
39094;SDS011;24840;47.508;19.376;2022-10-31T05:03:18;29.67;;;20.73;;
39094;SDS011;24840;47.508;19.376;2022-10-31T05:05:44;30.63;;;20.40;;
39094;SDS011;24840;47.508;19.376;2022-10-31T05:08:11;28.80;;;19.52;;
39094;SDS011;24840;47.508;19.376;2022-10-31T05:10:37;29.83;;;20.27;;
39094;SDS011;24840;47.508;19.376;2022-10-31T05:13:03;28.58;;;19.88;;
39094;SDS011;24840;47.508;19.376;2022-10-31T05:15:30;27.65;;;19.35;;
39094;SDS011;24840;47.508;19.376;2022-10-31T05:17:56;24.77;;;18.23;;
39094;SDS011;24840;47.508;19.376;2022-10-31T05:20:23;24.15;;;17.33;;
39094;SDS011;24840;47.508;19.376;2022-10-31T05:22:52;26.88;;;18.58;;
39094;SDS011;24840;47.508;19.376;2022-10-31T05:25:20;27.80;;;18.88;;
39094;SDS011;24840;47.508;19.376;2022-10-31T05:27:48;24.83;;;18.92;;
39094;SDS011;24840;47.508;19.376;2022-10-31T05:30:17;26.20;;;17.85;;
39094;SDS011;24840;47.508;19.376;2022-10-31T05:33:03;25.73;;;17.35;;
39094;SDS011;24840;47.508;19.376;2022-10-31T05:35:30;22.50;;;16.88;;
39094;SDS011;24840;47.508;19.376;2022-10-31T05:37:57;23.20;;;16.90;;
39094;SDS011;24840;47.508;19.376;2022-10-31T05:40:24;26.15;;;16.88;;
39094;SDS011;24840;47.508;19.376;2022-10-31T05:42:52;23.65;;;17.50;;
39094;SDS011;24840;47.508;19.376;2022-10-31T05:45:20;23.50;;;17.70;;
39094;SDS011;24840;47.508;19.376;2022-10-31T05:47:55;29.27;;;19.02;;
39094;SDS011;24840;47.508;19.376;2022-10-31T05:50:25;25.98;;;17.92;;
39094;SDS011;24840;47.508;19.376;2022-10-31T05:53:02;25.52;;;16.85;;
39094;SDS011;24840;47.508;19.376;2022-10-31T05:55:29;24.88;;;16.83;;
39094;SDS011;24840;47.508;19.376;2022-10-31T05:57:56;22.73;;;16.40;;
39094;SDS011;24840;47.508;19.376;2022-10-31T06:00:22;19.70;;;15.48;;
39094;SDS011;24840;47.508;19.376;2022-10-31T06:02:57;23.92;;;17.20;;
39094;SDS011;24840;47.508;19.376;2022-10-31T06:05:24;21.00;;;15.85;;
39094;SDS011;24840;47.508;19.376;2022-10-31T06:07:50;22.83;;;17.25;;
39094;SDS011;24840;47.508;19.376;2022-10-31T06:10:16;22.90;;;16.73;;
39094;SDS011;24840;47.508;19.376;2022-10-31T06:12:41;20.27;;;15.15;;
39094;SDS011;24840;47.508;19.376;2022-10-31T06:15:08;24.13;;;16.85;;
39094;SDS011;24840;47.508;19.376;2022-10-31T06:17:34;21.83;;;16.60;;
39094;SDS011;24840;47.508;19.376;2022-10-31T06:20:02;25.20;;;17.60;;
39094;SDS011;24840;47.508;19.376;2022-10-31T06:22:28;23.80;;;16.50;;
39094;SDS011;24840;47.508;19.376;2022-10-31T06:24:54;21.95;;;15.55;;
39094;SDS011;24840;47.508;19.376;2022-10-31T06:27:20;21.20;;;16.52;;
39094;SDS011;24840;47.508;19.376;2022-10-31T06:29:46;23.58;;;16.48;;
39094;SDS011;24840;47.508;19.376;2022-10-31T06:32:12;21.90;;;16.55;;
39094;SDS011;24840;47.508;19.376;2022-10-31T06:34:39;21.67;;;15.98;;
39094;SDS011;24840;47.508;19.376;2022-10-31T06:37:06;23.50;;;17.40;;
39094;SDS011;24840;47.508;19.376;2022-10-31T06:39:32;20.88;;;15.43;;
39094;SDS011;24840;47.508;19.376;2022-10-31T06:41:59;22.23;;;16.38;;
39094;SDS011;24840;47.508;19.376;2022-10-31T06:44:25;21.23;;;16.42;;
39094;SDS011;24840;47.508;19.376;2022-10-31T06:46:50;22.23;;;15.00;;
39094;SDS011;24840;47.508;19.376;2022-10-31T06:49:18;22.25;;;14.32;;
39094;SDS011;24840;47.508;19.376;2022-10-31T06:51:47;22.30;;;14.38;;
39094;SDS011;24840;47.508;19.376;2022-10-31T06:54:13;19.05;;;14.20;;
39094;SDS011;24840;47.508;19.376;2022-10-31T06:56:40;22.25;;;15.38;;
39094;SDS011;24840;47.508;19.376;2022-10-31T06:59:07;23.38;;;15.57;;
39094;SDS011;24840;47.508;19.376;2022-10-31T07:01:33;27.23;;;17.52;;
39094;SDS011;24840;47.508;19.376;2022-10-31T07:03:59;18.13;;;14.27;;
39094;SDS011;24840;47.508;19.376;2022-10-31T07:06:25;21.95;;;14.45;;
39094;SDS011;24840;47.508;19.376;2022-10-31T07:08:53;21.85;;;15.25;;
39094;SDS011;24840;47.508;19.376;2022-10-31T07:11:18;20.20;;;15.07;;
39094;SDS011;24840;47.508;19.376;2022-10-31T07:13:44;21.38;;;14.55;;
39094;SDS011;24840;47.508;19.376;2022-10-31T07:16:11;19.02;;;15.02;;
39094;SDS011;24840;47.508;19.376;2022-10-31T07:18:43;19.60;;;14.30;;
39094;SDS011;24840;47.508;19.376;2022-10-31T07:21:09;19.00;;;14.30;;
39094;SDS011;24840;47.508;19.376;2022-10-31T07:23:35;17.08;;;13.02;;
39094;SDS011;24840;47.508;19.376;2022-10-31T07:26:01;21.70;;;14.10;;
39094;SDS011;24840;47.508;19.376;2022-10-31T07:28:28;19.27;;;13.82;;
39094;SDS011;24840;47.508;19.376;2022-10-31T07:30:55;17.42;;;13.23;;
39094;SDS011;24840;47.508;19.376;2022-10-31T07:33:23;16.25;;;12.55;;
39094;SDS011;24840;47.508;19.376;2022-10-31T07:35:53;15.55;;;13.15;;
39094;SDS011;24840;47.508;19.376;2022-10-31T07:38:19;15.63;;;13.00;;
39094;SDS011;24840;47.508;19.376;2022-10-31T07:40:48;17.80;;;13.32;;
39094;SDS011;24840;47.508;19.376;2022-10-31T07:43:16;20.40;;;14.73;;
39094;SDS011;24840;47.508;19.376;2022-10-31T07:45:42;20.83;;;15.18;;
39094;SDS011;24840;47.508;19.376;2022-10-31T07:48:10;17.35;;;13.50;;
39094;SDS011;24840;47.508;19.376;2022-10-31T07:50:36;15.98;;;13.05;;
39094;SDS011;24840;47.508;19.376;2022-10-31T07:53:03;13.82;;;11.75;;
39094;SDS011;24840;47.508;19.376;2022-10-31T07:55:31;15.63;;;13.00;;
39094;SDS011;24840;47.508;19.376;2022-10-31T07:58:06;14.63;;;11.52;;
39094;SDS011;24840;47.508;19.376;2022-10-31T08:00:36;14.60;;;12.48;;
39094;SDS011;24840;47.508;19.376;2022-10-31T08:03:04;15.13;;;11.60;;
39094;SDS011;24840;47.508;19.376;2022-10-31T08:05:35;16.85;;;12.60;;
39094;SDS011;24840;47.508;19.376;2022-10-31T08:08:04;15.95;;;12.48;;
39094;SDS011;24840;47.508;19.376;2022-10-31T08:10:31;19.88;;;13.27;;
39094;SDS011;24840;47.508;19.376;2022-10-31T08:15:27;18.63;;;12.07;;
39094;SDS011;24840;47.508;19.376;2022-10-31T08:17:53;16.35;;;12.52;;
39094;SDS011;24840;47.508;19.376;2022-10-31T08:20:19;19.40;;;13.05;;
39094;SDS011;24840;47.508;19.376;2022-10-31T08:22:55;14.23;;;11.48;;
39094;SDS011;24840;47.508;19.376;2022-10-31T08:25:23;17.13;;;13.55;;
39094;SDS011;24840;47.508;19.376;2022-10-31T08:27:50;17.10;;;12.85;;
39094;SDS011;24840;47.508;19.376;2022-10-31T08:30:18;18.15;;;13.38;;
39094;SDS011;24840;47.508;19.376;2022-10-31T08:32:46;17.73;;;12.98;;
39094;SDS011;24840;47.508;19.376;2022-10-31T08:35:12;16.98;;;12.35;;
39094;SDS011;24840;47.508;19.376;2022-10-31T08:37:40;17.83;;;14.10;;
39094;SDS011;24840;47.508;19.376;2022-10-31T08:40:09;18.20;;;14.00;;
39094;SDS011;24840;47.508;19.376;2022-10-31T08:42:36;17.50;;;13.40;;
39094;SDS011;24840;47.508;19.376;2022-10-31T08:45:02;17.58;;;13.52;;
39094;SDS011;24840;47.508;19.376;2022-10-31T08:47:28;20.23;;;15.57;;
39094;SDS011;24840;47.508;19.376;2022-10-31T08:49:55;17.58;;;13.80;;
39094;SDS011;24840;47.508;19.376;2022-10-31T08:52:24;17.40;;;13.32;;
39094;SDS011;24840;47.508;19.376;2022-10-31T08:54:51;20.00;;;14.98;;
39094;SDS011;24840;47.508;19.376;2022-10-31T08:57:20;17.92;;;13.48;;
39094;SDS011;24840;47.508;19.376;2022-10-31T09:02:15;16.52;;;13.85;;
39094;SDS011;24840;47.508;19.376;2022-10-31T09:04:41;18.35;;;12.95;;
39094;SDS011;24840;47.508;19.376;2022-10-31T09:07:07;19.75;;;13.65;;
39094;SDS011;24840;47.508;19.376;2022-10-31T09:09:33;19.90;;;13.55;;
39094;SDS011;24840;47.508;19.376;2022-10-31T09:11:59;19.08;;;13.73;;
39094;SDS011;24840;47.508;19.376;2022-10-31T09:14:25;18.45;;;12.73;;
39094;SDS011;24840;47.508;19.376;2022-10-31T09:16:51;18.98;;;13.57;;
39094;SDS011;24840;47.508;19.376;2022-10-31T09:19:17;16.35;;;13.80;;
39094;SDS011;24840;47.508;19.376;2022-10-31T09:21:43;19.23;;;13.15;;
39094;SDS011;24840;47.508;19.376;2022-10-31T09:24:09;16.52;;;13.20;;
39094;SDS011;24840;47.508;19.376;2022-10-31T09:26:35;15.07;;;12.52;;
39094;SDS011;24840;47.508;19.376;2022-10-31T09:29:01;14.15;;;11.43;;
39094;SDS011;24840;47.508;19.376;2022-10-31T09:31:27;14.52;;;11.68;;
39094;SDS011;24840;47.508;19.376;2022-10-31T09:33:53;15.48;;;11.20;;
39094;SDS011;24840;47.508;19.376;2022-10-31T09:36:19;13.80;;;11.32;;
39094;SDS011;24840;47.508;19.376;2022-10-31T09:38:46;15.65;;;12.35;;
39094;SDS011;24840;47.508;19.376;2022-10-31T09:44:30;15.95;;;12.02;;
39094;SDS011;24840;47.508;19.376;2022-10-31T09:47:19;15.27;;;12.13;;
39094;SDS011;24840;47.508;19.376;2022-10-31T09:50:15;16.08;;;12.32;;
39094;SDS011;24840;47.508;19.376;2022-10-31T09:52:52;15.85;;;11.98;;
39094;SDS011;24840;47.508;19.376;2022-10-31T09:55:43;14.50;;;12.18;;
39094;SDS011;24840;47.508;19.376;2022-10-31T09:58:19;13.60;;;11.32;;
39094;SDS011;24840;47.508;19.376;2022-10-31T10:00:49;14.63;;;11.63;;
39094;SDS011;24840;47.508;19.376;2022-10-31T10:05:57;18.58;;;11.68;;
39094;SDS011;24840;47.508;19.376;2022-10-31T10:08:31;15.13;;;11.40;;
39094;SDS011;24840;47.508;19.376;2022-10-31T10:19:20;17.02;;;13.70;;
39094;SDS011;24840;47.508;19.376;2022-10-31T10:21:57;16.77;;;12.90;;
39094;SDS011;24840;47.508;19.376;2022-10-31T10:24:55;17.58;;;12.10;;
39094;SDS011;24840;47.508;19.376;2022-10-31T10:30:13;14.95;;;11.88;;
39094;SDS011;24840;47.508;19.376;2022-10-31T10:32:45;18.63;;;14.05;;
39094;SDS011;24840;47.508;19.376;2022-10-31T10:35:20;16.27;;;12.77;;
39094;SDS011;24840;47.508;19.376;2022-10-31T10:37:56;16.10;;;12.45;;
39094;SDS011;24840;47.508;19.376;2022-10-31T10:40:27;16.48;;;13.00;;
39094;SDS011;24840;47.508;19.376;2022-10-31T10:46:40;13.63;;;11.65;;
39094;SDS011;24840;47.508;19.376;2022-10-31T10:49:00;15.82;;;12.10;;
39094;SDS011;24840;47.508;19.376;2022-10-31T10:51:47;15.60;;;12.63;;
39094;SDS011;24840;47.508;19.376;2022-10-31T11:02:58;16.42;;;12.05;;
39094;SDS011;24840;47.508;19.376;2022-10-31T11:10:58;17.10;;;12.80;;
39094;SDS011;24840;47.508;19.376;2022-10-31T11:13:33;15.45;;;12.25;;
39094;SDS011;24840;47.508;19.376;2022-10-31T11:16:04;15.75;;;12.20;;
39094;SDS011;24840;47.508;19.376;2022-10-31T11:18:36;14.38;;;12.35;;
39094;SDS011;24840;47.508;19.376;2022-10-31T11:21:05;17.90;;;13.00;;
39094;SDS011;24840;47.508;19.376;2022-10-31T11:23:31;16.58;;;11.90;;
39094;SDS011;24840;47.508;19.376;2022-10-31T11:26:04;16.55;;;11.38;;
39094;SDS011;24840;47.508;19.376;2022-10-31T11:28:41;17.20;;;12.80;;
39094;SDS011;24840;47.508;19.376;2022-10-31T11:31:08;16.67;;;13.77;;
39094;SDS011;24840;47.508;19.376;2022-10-31T11:33:39;18.77;;;13.35;;
39094;SDS011;24840;47.508;19.376;2022-10-31T11:36:23;18.45;;;12.30;;
39094;SDS011;24840;47.508;19.376;2022-10-31T11:38:51;18.58;;;12.77;;
39094;SDS011;24840;47.508;19.376;2022-10-31T11:41:18;22.27;;;14.73;;
39094;SDS011;24840;47.508;19.376;2022-10-31T11:44:02;17.00;;;12.68;;
39094;SDS011;24840;47.508;19.376;2022-10-31T11:46:39;14.90;;;11.88;;
39094;SDS011;24840;47.508;19.376;2022-10-31T11:49:13;19.17;;;13.40;;
39094;SDS011;24840;47.508;19.376;2022-10-31T11:51:46;17.73;;;13.65;;
39094;SDS011;24840;47.508;19.376;2022-10-31T11:54:33;17.05;;;13.13;;
39094;SDS011;24840;47.508;19.376;2022-10-31T11:57:23;19.70;;;14.23;;
39094;SDS011;24840;47.508;19.376;2022-10-31T11:59:52;16.77;;;13.05;;
39094;SDS011;24840;47.508;19.376;2022-10-31T12:02:21;17.38;;;13.27;;
39094;SDS011;24840;47.508;19.376;2022-10-31T12:04:57;16.48;;;12.80;;
39094;SDS011;24840;47.508;19.376;2022-10-31T12:07:42;18.25;;;12.48;;
39094;SDS011;24840;47.508;19.376;2022-10-31T12:10:12;14.50;;;12.20;;
39094;SDS011;24840;47.508;19.376;2022-10-31T12:15:16;17.52;;;12.45;;
39094;SDS011;24840;47.508;19.376;2022-10-31T12:17:59;16.88;;;12.85;;
39094;SDS011;24840;47.508;19.376;2022-10-31T12:20:58;16.27;;;12.15;;
39094;SDS011;24840;47.508;19.376;2022-10-31T12:34:33;15.32;;;12.80;;
39094;SDS011;24840;47.508;19.376;2022-10-31T12:40:02;12.85;;;11.07;;
39094;SDS011;24840;47.508;19.376;2022-10-31T12:50:57;17.27;;;10.70;;
39094;SDS011;24840;47.508;19.376;2022-10-31T12:56:56;13.48;;;10.68;;
39094;SDS011;24840;47.508;19.376;2022-10-31T12:59:41;13.73;;;10.98;;
39094;SDS011;24840;47.508;19.376;2022-10-31T13:04:56;14.07;;;9.68;;
39094;SDS011;24840;47.508;19.376;2022-10-31T13:07:39;14.13;;;11.18;;
39094;SDS011;24840;47.508;19.376;2022-10-31T13:12:58;13.23;;;11.05;;
39094;SDS011;24840;47.508;19.376;2022-10-31T13:15:51;14.85;;;10.93;;
39094;SDS011;24840;47.508;19.376;2022-10-31T13:21:01;13.77;;;10.75;;
39094;SDS011;24840;47.508;19.376;2022-10-31T13:23:34;14.60;;;11.70;;
39094;SDS011;24840;47.508;19.376;2022-10-31T13:26:03;14.98;;;11.90;;
39094;SDS011;24840;47.508;19.376;2022-10-31T13:28:46;15.40;;;11.43;;
39094;SDS011;24840;47.508;19.376;2022-10-31T13:31:16;12.85;;;10.25;;
39094;SDS011;24840;47.508;19.376;2022-10-31T13:33:47;14.63;;;10.98;;
39094;SDS011;24840;47.508;19.376;2022-10-31T13:36:25;12.68;;;10.07;;
39094;SDS011;24840;47.508;19.376;2022-10-31T13:38:54;11.40;;;10.15;;
39094;SDS011;24840;47.508;19.376;2022-10-31T13:41:41;13.65;;;10.45;;
39094;SDS011;24840;47.508;19.376;2022-10-31T13:44:23;13.23;;;10.95;;
39094;SDS011;24840;47.508;19.376;2022-10-31T13:46:52;12.90;;;10.98;;
39094;SDS011;24840;47.508;19.376;2022-10-31T13:49:25;19.38;;;12.18;;
39094;SDS011;24840;47.508;19.376;2022-10-31T13:54:45;15.50;;;12.02;;
39094;SDS011;24840;47.508;19.376;2022-10-31T13:57:19;16.30;;;12.80;;
39094;SDS011;24840;47.508;19.376;2022-10-31T14:02:33;18.65;;;13.73;;
39094;SDS011;24840;47.508;19.376;2022-10-31T14:05:06;16.45;;;12.48;;
39094;SDS011;24840;47.508;19.376;2022-10-31T14:07:44;17.92;;;13.23;;
39094;SDS011;24840;47.508;19.376;2022-10-31T14:10:28;17.83;;;12.93;;
39094;SDS011;24840;47.508;19.376;2022-10-31T14:13:20;18.63;;;12.73;;
39094;SDS011;24840;47.508;19.376;2022-10-31T14:15:55;18.90;;;14.18;;
39094;SDS011;24840;47.508;19.376;2022-10-31T14:18:24;18.85;;;12.40;;
39094;SDS011;24840;47.508;19.376;2022-10-31T14:20:58;19.67;;;14.07;;
39094;SDS011;24840;47.508;19.376;2022-10-31T14:28:56;24.33;;;16.92;;
39094;SDS011;24840;47.508;19.376;2022-10-31T14:31:34;23.63;;;15.82;;
39094;SDS011;24840;47.508;19.376;2022-10-31T14:39:54;23.98;;;16.00;;
39094;SDS011;24840;47.508;19.376;2022-10-31T14:50:51;28.30;;;19.85;;
39094;SDS011;24840;47.508;19.376;2022-10-31T14:55:48;32.33;;;19.60;;
39094;SDS011;24840;47.508;19.376;2022-10-31T15:01:03;27.63;;;18.85;;
39094;SDS011;24840;47.508;19.376;2022-10-31T15:03:33;26.38;;;17.75;;
39094;SDS011;24840;47.508;19.376;2022-10-31T15:06:11;24.52;;;17.10;;
39094;SDS011;24840;47.508;19.376;2022-10-31T15:08:40;30.25;;;18.63;;
39094;SDS011;24840;47.508;19.376;2022-10-31T15:11:14;28.27;;;18.83;;
39094;SDS011;24840;47.508;19.376;2022-10-31T15:13:55;25.55;;;18.50;;
39094;SDS011;24840;47.508;19.376;2022-10-31T15:16:24;25.23;;;17.25;;
39094;SDS011;24840;47.508;19.376;2022-10-31T15:18:54;31.45;;;18.08;;
39094;SDS011;24840;47.508;19.376;2022-10-31T15:21:22;25.77;;;18.05;;
39094;SDS011;24840;47.508;19.376;2022-10-31T15:23:51;28.70;;;18.77;;
39094;SDS011;24840;47.508;19.376;2022-10-31T15:26:19;29.05;;;19.98;;
39094;SDS011;24840;47.508;19.376;2022-10-31T15:29:00;31.25;;;18.88;;
39094;SDS011;24840;47.508;19.376;2022-10-31T15:31:28;28.08;;;19.05;;
39094;SDS011;24840;47.508;19.376;2022-10-31T15:33:57;35.45;;;21.25;;
39094;SDS011;24840;47.508;19.376;2022-10-31T15:36:28;26.98;;;19.52;;
39094;SDS011;24840;47.508;19.376;2022-10-31T15:38:55;29.88;;;19.60;;
39094;SDS011;24840;47.508;19.376;2022-10-31T15:44:16;30.63;;;20.42;;
39094;SDS011;24840;47.508;19.376;2022-10-31T15:46:55;30.00;;;20.27;;
39094;SDS011;24840;47.508;19.376;2022-10-31T15:49:41;30.80;;;20.65;;
39094;SDS011;24840;47.508;19.376;2022-10-31T15:52:29;29.77;;;19.30;;
39094;SDS011;24840;47.508;19.376;2022-10-31T15:55:14;31.10;;;20.70;;
39094;SDS011;24840;47.508;19.376;2022-10-31T15:57:45;33.13;;;21.70;;
39094;SDS011;24840;47.508;19.376;2022-10-31T16:00:27;37.05;;;22.42;;
39094;SDS011;24840;47.508;19.376;2022-10-31T16:05:39;40.03;;;22.13;;
39094;SDS011;24840;47.508;19.376;2022-10-31T16:10:57;34.67;;;22.52;;
39094;SDS011;24840;47.508;19.376;2022-10-31T16:13:41;34.55;;;22.55;;
39094;SDS011;24840;47.508;19.376;2022-10-31T16:16:23;36.15;;;23.35;;
39094;SDS011;24840;47.508;19.376;2022-10-31T16:18:51;37.58;;;23.25;;
39094;SDS011;24840;47.508;19.376;2022-10-31T16:21:23;36.63;;;22.80;;
39094;SDS011;24840;47.508;19.376;2022-10-31T16:23:57;42.55;;;24.25;;
39094;SDS011;24840;47.508;19.376;2022-10-31T16:26:29;41.13;;;23.55;;
39094;SDS011;24840;47.508;19.376;2022-10-31T16:28:56;37.80;;;24.27;;
39094;SDS011;24840;47.508;19.376;2022-10-31T16:31:29;37.50;;;24.77;;
39094;SDS011;24840;47.508;19.376;2022-10-31T16:34:11;39.65;;;24.70;;
39094;SDS011;24840;47.508;19.376;2022-10-31T16:36:47;42.75;;;24.48;;
39094;SDS011;24840;47.508;19.376;2022-10-31T16:39:13;37.47;;;22.60;;
39094;SDS011;24840;47.508;19.376;2022-10-31T16:41:40;36.17;;;23.38;;
39094;SDS011;24840;47.508;19.376;2022-10-31T16:44:14;35.88;;;21.40;;
39094;SDS011;24840;47.508;19.376;2022-10-31T16:46:46;37.80;;;23.08;;
39094;SDS011;24840;47.508;19.376;2022-10-31T16:49:12;36.28;;;20.70;;
39094;SDS011;24840;47.508;19.376;2022-10-31T16:51:40;39.47;;;23.63;;
39094;SDS011;24840;47.508;19.376;2022-10-31T16:54:06;32.58;;;22.48;;
39094;SDS011;24840;47.508;19.376;2022-10-31T16:56:35;38.00;;;24.08;;
39094;SDS011;24840;47.508;19.376;2022-10-31T16:59:02;39.13;;;20.67;;
39094;SDS011;24840;47.508;19.376;2022-10-31T17:01:31;39.22;;;23.90;;
39094;SDS011;24840;47.508;19.376;2022-10-31T17:04:00;35.38;;;23.42;;
39094;SDS011;24840;47.508;19.376;2022-10-31T17:06:26;44.38;;;23.63;;
39094;SDS011;24840;47.508;19.376;2022-10-31T17:08:52;40.30;;;25.00;;
39094;SDS011;24840;47.508;19.376;2022-10-31T17:11:20;40.13;;;24.67;;
39094;SDS011;24840;47.508;19.376;2022-10-31T17:13:49;37.88;;;22.88;;
39094;SDS011;24840;47.508;19.376;2022-10-31T17:16:15;40.67;;;23.58;;
39094;SDS011;24840;47.508;19.376;2022-10-31T17:18:41;44.20;;;24.92;;
39094;SDS011;24840;47.508;19.376;2022-10-31T17:21:13;37.35;;;23.45;;
39094;SDS011;24840;47.508;19.376;2022-10-31T17:23:43;37.33;;;24.08;;
39094;SDS011;24840;47.508;19.376;2022-10-31T17:26:09;39.45;;;23.92;;
39094;SDS011;24840;47.508;19.376;2022-10-31T17:28:36;43.83;;;23.30;;